Time;durP1;ratioP1;P1;durP2;ratioP2;P2;SDS_P1;SDS_P2;PMS_P1;PMS_P2;Temp;Humidity;BMP_temperature;BMP_pressure;BME280_temperature;BME280_humidity;BME280_pressure;Samples;Min_cycle;Max_cycle;Signal;HPM_P1;HPM_P2
2021/12/12 00:04:48;;;;;;;58.05;18.48;;;;;;;1.07;100.00;101882.19;15294037;19;20015;-59
2021/12/12 00:09:55;;;;;;;41.15;15.65;;;;;;;1.09;100.00;101879.72;15297617;19;20018;-60
2021/12/12 00:14:57;;;;;;;49.40;16.55;;;;;;;1.12;100.00;101878.25;15289503;19;20499;-59
2021/12/12 00:19:59;;;;;;;46.53;17.15;;;;;;;1.18;100.00;101878.69;15296804;19;20024;-59
2021/12/12 00:25:02;;;;;;;47.75;18.08;;;;;;;1.19;100.00;101859.84;15294349;19;20014;-59
2021/12/12 00:30:07;;;;;;;47.50;16.77;;;;;;;1.29;100.00;101857.94;15294459;19;20023;-60
2021/12/12 00:35:12;;;;;;;38.88;16.55;;;;;;;1.31;100.00;101858.97;15291210;19;20027;-59
2021/12/12 00:40:22;;;;;;;46.30;18.38;;;;;;;1.34;100.00;101847.16;15293621;19;20109;-60
2021/12/12 00:45:25;;;;;;;;;;;;;;;1.36;100.00;101849.84;15293954;19;20029;-60
2021/12/12 00:50:35;;;;;;;57.92;21.00;;;;;;;1.40;100.00;101836.38;15292211;19;20477;-60
2021/12/12 00:55:38;;;;;;;65.90;20.23;;;;;;;1.55;100.00;101831.41;15290631;19;20036;-60
2021/12/12 01:00:51;;;;;;;52.17;19.02;;;;;;;1.58;100.00;101837.66;15292973;19;20084;-59
2021/12/12 01:05:57;;;;;;;60.90;20.52;;;;;;;1.65;100.00;101825.19;15291382;19;20022;-60
2021/12/12 01:11:31;;;;;;;62.30;21.77;;;;;;;1.75;100.00;101820.75;15293625;19;20011;-60
2021/12/12 01:16:41;;;;;;;49.33;19.90;;;;;;;1.85;100.00;101817.16;15290771;19;20014;-60
2021/12/12 01:21:48;;;;;;;58.97;20.67;;;;;;;1.91;100.00;101824.44;15289234;19;20325;-60
2021/12/12 01:26:50;;;;;;;67.68;22.30;;;;;;;1.96;100.00;101824.75;15290639;19;21063;-60
2021/12/12 01:31:53;;;;;;;49.80;20.17;;;;;;;1.99;100.00;101812.03;15289940;19;20085;-59
2021/12/12 01:42:07;;;;;;;75.67;23.23;;;;;;;2.19;100.00;101822.03;15289962;19;20090;-59
2021/12/12 01:47:13;;;;;;;61.65;21.88;;;;;;;2.21;100.00;101823.03;15289783;19;20031;-59
2021/12/12 01:52:18;;;;;;;77.20;21.30;;;;;;;2.25;100.00;101825.03;15288648;19;20038;-59
2021/12/12 01:57:26;;;;;;;65.50;23.38;;;;;;;2.28;100.00;101819.16;15288480;19;20032;-60
2021/12/12 02:02:32;;;;;;;66.82;23.35;;;;;;;2.29;100.00;101813.19;15296000;19;20027;-60
2021/12/12 02:07:36;;;;;;;67.55;23.50;;;;;;;2.37;100.00;101812.03;15291077;19;20014;-60
2021/12/12 02:12:38;;;;;;;64.85;22.98;;;;;;;2.35;100.00;101817.88;15286407;19;20019;-59
2021/12/12 02:17:44;;;;;;;74.95;22.70;;;;;;;2.35;100.00;101812.72;15284977;19;20396;-59
2021/12/12 02:38:36;;;;;;;75.50;25.13;;;;;;;2.52;100.00;101813.84;15292684;19;20010;-60
2021/12/12 02:43:45;;;;;;;70.22;24.30;;;;;;;2.63;100.00;101818.03;15299927;19;20022;-60
2021/12/12 02:48:51;;;;;;;69.67;24.87;;;;;;;2.56;100.00;101801.19;15300535;19;20420;-60
2021/12/12 02:53:56;;;;;;;57.80;24.42;;;;;;;2.63;100.00;101800.81;15298644;19;20031;-59
2021/12/12 02:58:58;;;;;;;68.95;25.67;;;;;;;2.60;100.00;101803.22;15300962;19;20018;-60
2021/12/12 03:04:00;;;;;;;67.15;23.00;;;;;;;2.62;100.00;101801.59;15295686;19;20347;-59
2021/12/12 03:09:12;;;;;;;67.07;25.27;;;;;;;2.61;100.00;101812.75;15297991;19;20364;-59
2021/12/12 03:14:14;;;;;;;63.80;24.15;;;;;;;2.64;100.00;101802.63;15296080;19;20031;-59
2021/12/12 03:19:20;;;;;;;62.42;27.55;;;;;;;2.70;100.00;101808.97;15298901;19;20090;-60
2021/12/12 03:24:27;;;;;;;70.18;28.13;;;;;;;2.80;100.00;101793.25;15295759;19;20022;-60
2021/12/12 03:29:29;;;;;;;58.75;24.20;;;;;;;2.75;100.00;101798.13;15299583;19;20014;-60
2021/12/12 03:34:36;;;;;;;65.03;24.63;;;;;;;2.79;100.00;101796.63;15294790;19;20078;-60
2021/12/12 03:39:41;;;;;;;54.50;24.92;;;;;;;2.85;100.00;101799.63;15299331;19;20014;-59
2021/12/12 03:44:44;;;;;;;57.15;23.52;;;;;;;2.78;100.00;101797.44;15295283;19;20019;-60
2021/12/12 03:49:47;;;;;;;59.78;23.70;;;;;;;2.82;100.00;101799.41;15298591;19;20022;-60
2021/12/12 03:54:52;;;;;;;54.90;23.50;;;;;;;2.76;100.00;101792.19;15292907;19;20082;-59
2021/12/12 03:59:53;;;;;;;53.67;21.75;;;;;;;2.81;100.00;101792.47;15296668;19;20018;-60
2021/12/12 04:04:55;;;;;;;51.15;20.55;;;;;;;2.81;100.00;101783.00;15294141;19;20018;-59
2021/12/12 04:09:57;;;;;;;51.03;22.45;;;;;;;2.77;100.00;101786.19;15296598;19;20025;-59
2021/12/12 04:14:59;;;;;;;50.33;19.48;;;;;;;2.76;100.00;101788.69;15292757;19;20094;-59
2021/12/12 04:20:11;;;;;;;41.20;18.35;;;;;;;2.73;100.00;101794.56;15296042;19;20014;-59
2021/12/12 04:25:14;;;;;;;36.13;17.48;;;;;;;2.78;100.00;101784.53;15189761;19;2004876;-59
2021/12/12 04:30:17;;;;;;;40.83;18.33;;;;;;;2.76;100.00;101783.50;15295361;19;20023;-59
2021/12/12 04:35:22;;;;;;;42.63;18.95;;;;;;;2.77;100.00;101775.84;15290912;19;20077;-59
2021/12/12 04:40:28;;;;;;;36.92;16.98;;;;;;;2.75;100.00;101773.97;15292919;19;20026;-59
2021/12/12 04:46:07;;;;;;;40.25;15.90;;;;;;;2.72;100.00;101760.81;15291175;19;20419;-58
2021/12/12 04:51:23;;;;;;;34.60;15.52;;;;;;;2.77;100.00;101749.09;15291714;19;20362;-59
2021/12/12 04:56:27;;;;;;;44.30;15.57;;;;;;;2.75;100.00;101742.94;15293584;19;20014;-59
2021/12/12 05:01:55;;;;;;;37.00;14.85;;;;;;;2.78;100.00;101743.13;15290344;19;20029;-58
2021/12/12 05:07:04;;;;;;;30.08;12.15;;;;;;;2.74;100.00;101730.78;15293777;19;20034;-58
2021/12/12 05:12:31;;;;;;;31.90;13.60;;;;;;;2.74;100.00;101729.09;15292041;19;20360;-59
2021/12/12 05:17:43;;;;;;;24.08;12.23;;;;;;;2.80;100.00;101710.50;15288690;19;20031;-59
2021/12/12 05:22:49;;;;;;;26.05;12.60;;;;;;;2.81;100.00;101709.69;15291545;19;20090;-59
2021/12/12 05:27:53;;;;;;;29.02;11.90;;;;;;;2.81;100.00;101705.41;15290020;19;20074;-59
2021/12/12 05:32:57;;;;;;;30.08;13.52;;;;;;;2.86;100.00;101704.81;15289515;19;20015;-59
2021/12/12 05:38:01;;;;;;;27.55;11.88;;;;;;;2.81;100.00;101701.94;15288633;19;20096;-58
2021/12/12 05:43:03;;;;;;;24.63;10.18;;;;;;;2.89;100.00;101697.25;15288566;19;20035;-59
2021/12/12 05:48:07;;;;;;;25.77;11.00;;;;;;;2.94;100.00;101683.81;15290957;19;20078;-59
2021/12/12 05:53:09;;;;;;;23.95;10.05;;;;;;;3.00;100.00;101686.78;15287678;19;20023;-59
2021/12/12 05:58:14;;;;;;;27.80;11.02;;;;;;;3.03;100.00;101680.88;15289038;19;20361;-59
2021/12/12 06:03:21;;;;;;;31.20;12.45;;;;;;;3.09;100.00;101680.34;15287098;19;20010;-60
2021/12/12 06:08:24;;;;;;;24.58;10.73;;;;;;;3.08;100.00;101673.38;15287008;19;20010;-59
2021/12/12 06:13:27;;;;;;;22.33;9.98;;;;;;;3.05;100.00;101680.97;15294341;19;20482;-59
2021/12/12 06:18:31;;;;;;;29.98;9.80;;;;;;;3.08;100.00;101679.47;15299314;19;20090;-59
2021/12/12 06:23:32;;;;;;;21.40;10.57;;;;;;;3.11;100.00;101673.59;15301142;19;20373;-59
2021/12/12 06:28:38;;;;;;;20.55;10.48;;;;;;;3.11;100.00;101664.13;15299257;19;20098;-59
2021/12/12 06:33:41;;;;;;;21.30;9.73;;;;;;;3.17;100.00;101663.63;15298975;19;20062;-59
2021/12/12 06:38:46;;;;;;;20.77;10.70;;;;;;;3.11;100.00;101668.44;15300161;19;20415;-58
2021/12/12 06:43:49;;;;;;;22.02;9.82;;;;;;;3.12;100.00;101675.38;15299047;19;20081;-59
2021/12/12 06:48:52;;;;;;;24.65;9.60;;;;;;;3.11;100.00;101674.50;15301848;19;20501;-59
2021/12/12 06:53:54;;;;;;;21.80;9.55;;;;;;;3.11;100.00;101676.19;15297887;19;20417;-59
2021/12/12 06:58:57;;;;;;;21.80;8.23;;;;;;;3.14;100.00;101671.19;15299911;19;20035;-59
2021/12/12 07:04:07;;;;;;;23.73;9.38;;;;;;;3.17;100.00;101668.81;15296796;19;20025;-58
2021/12/12 07:09:10;;;;;;;20.83;10.07;;;;;;;3.13;100.00;101664.22;15300187;19;20515;-59
2021/12/12 07:14:15;;;;;;;18.88;8.85;;;;;;;3.19;100.00;101662.00;15298154;19;20014;-59
2021/12/12 07:19:17;;;;;;;17.20;9.02;;;;;;;3.18;100.00;101666.31;15298951;19;20018;-57
2021/12/12 07:24:22;;;;;;;20.63;9.52;;;;;;;3.18;100.00;101675.75;15293819;19;20023;-59
2021/12/12 07:29:25;;;;;;;17.38;9.70;;;;;;;3.18;100.00;101680.91;15298988;19;20094;-59
2021/12/12 07:34:28;;;;;;;23.17;10.32;;;;;;;3.21;100.00;101672.47;15290622;19;20031;-59
2021/12/12 07:39:31;;;;;;;15.93;7.97;;;;;;;3.22;100.00;101679.44;15282572;19;20018;-59
2021/12/12 07:44:36;;;;;;;19.92;8.57;;;;;;;3.19;100.00;101688.78;15292919;19;20022;-60
2021/12/12 07:49:41;;;;;;;19.25;7.88;;;;;;;3.23;100.00;101683.78;15297817;19;20035;-60
2021/12/12 07:54:45;;;;;;;15.30;7.40;;;;;;;3.21;100.00;101691.47;15295033;19;20006;-59
2021/12/12 07:59:47;;;;;;;16.08;8.00;;;;;;;3.23;100.00;101700.22;15298921;19;20022;-59
2021/12/12 08:04:53;;;;;;;15.45;7.55;;;;;;;3.25;100.00;101703.81;15288878;19;20035;-58
2021/12/12 08:09:55;;;;;;;15.40;7.95;;;;;;;3.28;100.00;101697.94;15295984;19;20035;-58
2021/12/12 08:14:57;;;;;;;14.45;8.40;;;;;;;3.32;100.00;101694.72;15293910;19;20018;-59
2021/12/12 08:19:59;;;;;;;14.00;7.93;;;;;;;3.33;100.00;101694.81;15288982;19;20036;-59
2021/12/12 08:25:05;;;;;;;16.63;8.48;;;;;;;3.36;100.00;101697.59;15293449;19;20372;-58
2021/12/12 08:30:08;;;;;;;17.23;8.50;;;;;;;3.40;100.00;101698.66;15295820;19;20036;-60
2021/12/12 08:35:12;;;;;;;15.52;8.85;;;;;;;3.39;100.00;101694.28;15289240;19;20018;-59
2021/12/12 08:40:18;;;;;;;16.00;8.82;;;;;;;3.42;100.00;101694.47;15294946;19;20380;-59
2021/12/12 08:45:25;;;;;;;14.27;8.38;;;;;;;3.49;100.00;101688.84;15292265;19;20027;-59
2021/12/12 08:50:30;;;;;;;16.20;8.27;;;;;;;-147.53;100.00;57128.34;15293385;19;20039;-59
2021/12/12 08:55:36;;;;;;;16.13;8.52;;;;;;;-147.53;100.00;57128.34;15290608;19;20014;-58
2021/12/12 09:00:48;;;;;;;16.52;9.15;;;;;;;-147.53;100.00;57128.34;15295035;19;20018;-59
2021/12/12 09:05:51;;;;;;;15.73;9.23;;;;;;;-147.53;100.00;57128.34;15291192;19;20813;-59
2021/12/12 09:11:19;;;;;;;15.43;8.77;;;;;;;-147.53;100.00;57128.34;15291624;19;20367;-59
2021/12/12 09:16:35;;;;;;;16.30;8.68;;;;;;;-147.53;100.00;57128.34;15288954;19;20021;-59
2021/12/12 09:21:50;;;;;;;15.27;8.00;;;;;;;-147.53;100.00;57128.34;15289737;19;20017;-59
2021/12/12 09:26:55;;;;;;;14.55;8.40;;;;;;;-147.53;100.00;57128.34;15291616;19;20022;-58
2021/12/12 09:32:06;;;;;;;16.30;9.32;;;;;;;-147.53;100.00;57128.34;15290996;19;20038;-59
2021/12/12 09:37:17;;;;;;;20.10;9.18;;;;;;;-147.53;100.00;57128.34;15288478;19;20011;-58
2021/12/12 09:42:45;;;;;;;14.32;7.85;;;;;;;-147.53;100.00;57128.34;15289903;19;20019;-59
2021/12/12 09:51:14;;;;;;;16.90;8.77;;;;;;;-147.53;100.00;57128.34;15287262;19;20466;-59
2021/12/12 09:53:51;;;;;;;15.18;8.45;;;;;;;-147.53;100.00;57128.34;15288101;19;20426;-58
2021/12/12 09:59:09;;;;;;;15.25;9.10;;;;;;;-147.53;100.00;57128.34;15287626;19;20415;-59
2021/12/12 10:04:17;;;;;;;15.93;9.27;;;;;;;-147.53;100.00;57128.34;15286486;19;20031;-59
2021/12/12 10:09:32;;;;;;;17.48;9.65;;;;;;;-147.53;100.00;57128.34;15289763;19;20023;-59
2021/12/12 10:14:43;;;;;;;17.13;8.82;;;;;;;-147.53;100.00;57128.34;15287531;19;20035;-60
2021/12/12 10:20:00;;;;;;;15.75;8.52;;;;;;;-147.53;100.00;57128.34;15283004;19;20015;-59
2021/12/12 10:25:13;;;;;;;16.92;9.70;;;;;;;-147.53;100.00;57128.34;15258090;19;20018;-59
2021/12/12 10:30:21;;;;;;;17.67;9.63;;;;;;;-147.53;100.00;57128.34;15285539;19;20010;-59
2021/12/12 10:35:39;;;;;;;17.00;9.30;;;;;;;-147.53;100.00;57128.34;15284832;19;20028;-59
2021/12/12 10:40:57;;;;;;;17.70;9.88;;;;;;;-147.53;100.00;57128.34;15286057;19;20426;-60
2021/12/12 10:46:10;;;;;;;18.75;9.27;;;;;;;-147.53;100.00;57128.34;15283646;19;20018;-60
2021/12/12 10:51:20;;;;;;;20.70;9.30;;;;;;;-147.53;100.00;57128.34;15280479;19;20652;-61
2021/12/12 10:57:00;;;;;;;20.08;9.60;;;;;;;-147.53;100.00;57128.34;15285310;19;20639;-60
2021/12/12 11:02:07;;;;;;;18.27;10.23;;;;;;;-147.53;100.00;57128.34;15295955;19;20021;-60
2021/12/12 11:07:24;;;;;;;17.63;9.93;;;;;;;-147.53;100.00;57128.34;15299880;19;20015;-60
2021/12/12 11:12:55;;;;;;;17.55;9.25;;;;;;;-147.53;100.00;57128.34;15298223;19;20019;-60
2021/12/12 11:18:30;;;;;;;19.45;9.70;;;;;;;-147.53;100.00;57128.34;15291454;19;20371;-59
2021/12/12 11:23:37;;;;;;;15.90;8.30;;;;;;;-147.53;100.00;57128.34;15295737;19;20014;-60
2021/12/12 11:28:43;;;;;;;15.02;8.57;;;;;;;-147.53;100.00;57128.34;15301429;19;20035;-60
2021/12/12 11:33:49;;;;;;;19.40;9.05;;;;;;;-147.53;100.00;57128.34;15293108;19;20029;-60
2021/12/12 11:39:02;;;;;;;15.45;9.10;;;;;;;-147.53;100.00;57128.34;15295732;19;20023;-60
2021/12/12 11:44:13;;;;;;;17.35;9.07;;;;;;;-147.53;100.00;57128.34;15295071;19;20014;-60
2021/12/12 11:49:29;;;;;;;19.70;9.50;;;;;;;-147.53;100.00;57128.34;15298832;19;20018;-60
2021/12/12 11:54:42;;;;;;;16.80;9.40;;;;;;;-147.53;100.00;57128.34;15295206;19;20022;-60
2021/12/12 11:59:50;;;;;;;15.60;8.02;;;;;;;-147.53;100.00;57128.34;15292784;19;20094;-60
2021/12/12 12:05:14;;;;;;;16.67;8.57;;;;;;;-147.53;100.00;57128.34;15294096;19;20418;-60
2021/12/12 12:10:34;;;;;;;18.92;9.88;;;;;;;-147.53;100.00;57128.34;15189635;19;2004373;-60
2021/12/12 12:15:54;;;;;;;14.80;8.02;;;;;;;-147.53;100.00;57128.34;15292691;19;20474;-60
2021/12/12 12:21:16;;;;;;;;;;;;;;;-147.53;100.00;57128.34;15297870;19;20018;-60
2021/12/12 12:32:16;;;;;;;16.73;8.18;;;;;;;-147.53;100.00;57128.34;15295817;19;20018;-60
2021/12/12 12:37:36;;;;;;;18.58;9.00;;;;;;;-147.53;100.00;57128.34;15294485;19;20031;-60
2021/12/12 12:43:07;;;;;;;16.00;8.32;;;;;;;-147.53;100.00;57128.34;15292320;19;20019;-60
2021/12/12 12:48:47;;;;;;;14.50;7.10;;;;;;;-147.53;100.00;57128.34;15282547;19;20078;-60
2021/12/12 12:53:55;;;;;;;14.97;7.57;;;;;;;-147.53;100.00;57128.34;15292923;19;20014;-60
2021/12/12 12:59:19;;;;;;;15.13;7.07;;;;;;;-147.53;100.00;57128.34;15287010;19;20027;-60
2021/12/12 13:04:56;;;;;;;16.38;7.45;;;;;;;-147.53;100.00;57128.34;15291142;19;20038;-61
2021/12/12 13:10:09;;;;;;;14.60;7.47;;;;;;;-147.53;100.00;57128.34;15289518;19;20017;-61
2021/12/12 13:15:34;;;;;;;15.45;7.90;;;;;;;-147.53;100.00;57128.34;15186901;19;2004457;-60
2021/12/12 13:20:55;;;;;;;15.82;8.02;;;;;;;-147.53;100.00;57128.34;15286403;19;20010;-60
2021/12/12 13:26:13;;;;;;;16.70;7.95;;;;;;;-147.53;100.00;57128.34;15291791;19;20034;-63
2021/12/12 13:31:27;;;;;;;14.70;7.50;;;;;;;-147.53;100.00;57128.34;15291848;19;20010;-61
2021/12/12 13:36:50;;;;;;;15.52;7.95;;;;;;;-147.53;100.00;57128.34;15290016;19;20038;-60
2021/12/12 13:42:16;;;;;;;12.05;6.78;;;;;;;-147.53;100.00;57128.34;15289409;19;20014;-60
2021/12/12 13:47:32;;;;;;;17.95;7.57;;;;;;;-147.53;100.00;57128.34;15285755;19;20418;-59
2021/12/12 13:53:01;;;;;;;15.38;7.18;;;;;;;-147.53;100.00;57128.34;15288084;19;20489;-61
2021/12/12 13:58:21;;;;;;;11.63;6.30;;;;;;;-147.53;100.00;57128.34;15288788;19;20082;-60
2021/12/12 14:03:33;;;;;;;13.15;5.65;;;;;;;-147.53;100.00;57128.34;15287876;19;20018;-61
2021/12/12 14:08:41;;;;;;;13.90;6.88;;;;;;;-147.53;100.00;57128.34;15290696;19;20417;-60
2021/12/12 14:13:48;;;;;;;13.13;6.32;;;;;;;-147.53;100.00;57128.34;15286261;19;20015;-60
2021/12/12 14:18:59;;;;;;;12.60;5.90;;;;;;;-147.53;100.00;57128.34;15277324;19;20101;-60
2021/12/12 14:24:02;;;;;;;12.10;5.65;;;;;;;-147.53;100.00;57128.34;15279298;19;20373;-61
2021/12/12 14:29:11;;;;;;;11.23;5.50;;;;;;;-147.53;100.00;57128.34;15283125;19;20027;-61
2021/12/12 14:34:23;;;;;;;10.90;5.33;;;;;;;-147.53;100.00;57128.34;15287947;19;20368;-60
2021/12/12 14:39:25;;;;;;;11.73;5.47;;;;;;;-147.53;100.00;57128.34;15290943;19;20078;-59
2021/12/12 14:44:34;;;;;;;10.48;5.22;;;;;;;3.49;100.00;101680.22;15290944;19;20018;-60
2021/12/12 14:49:52;;;;;;;11.70;5.53;;;;;;;6.68;100.00;101809.22;15295489;19;20082;-60
2021/12/12 14:55:09;;;;;;;9.55;4.88;;;;;;;6.69;100.00;101810.13;15298350;19;20018;-61
2021/12/12 15:00:25;;;;;;;11.95;6.20;;;;;;;6.68;100.00;101810.91;15299547;19;20486;-61
2021/12/12 15:05:33;;;;;;;11.13;5.13;;;;;;;6.74;100.00;101826.88;15298146;19;20032;-61
2021/12/12 15:10:59;;;;;;;10.38;5.30;;;;;;;6.76;100.00;101830.44;15305228;19;20010;-61
2021/12/12 15:16:07;;;;;;;9.35;4.88;;;;;;;6.73;100.00;101836.38;15300163;19;20018;-61
2021/12/12 15:21:33;;;;;;;10.63;5.38;;;;;;;6.74;100.00;101832.09;15299687;19;20743;-61
2021/12/12 15:26:40;;;;;;;14.13;7.78;;;;;;;6.75;100.00;101846.84;15300332;19;20027;-60
2021/12/12 15:31:47;;;;;;;10.85;6.60;;;;;;;6.78;100.00;101854.81;15298587;19;20019;-61
2021/12/12 15:36:54;;;;;;;10.93;5.72;;;;;;;6.80;100.00;101844.47;15298040;19;20526;-61
2021/12/12 15:42:01;;;;;;;11.85;6.70;;;;;;;6.77;100.00;101836.53;15299699;19;20368;-60
2021/12/12 15:47:10;;;;;;;13.18;6.95;;;;;;;6.80;100.00;101842.78;15298711;19;20010;-60
2021/12/12 15:52:33;;;;;;;11.38;5.65;;;;;;;6.83;100.00;101853.34;15298417;19;20018;-61
2021/12/12 15:57:39;;;;;;;15.77;6.30;;;;;;;6.81;100.00;101852.38;15296930;19;20692;-61
2021/12/12 16:02:43;;;;;;;14.38;7.53;;;;;;;6.85;100.00;101862.13;15289680;19;20023;-60
2021/12/12 16:07:52;;;;;;;13.68;7.22;;;;;;;6.86;100.00;101874.34;15296770;19;20014;-60
2021/12/12 16:13:00;;;;;;;14.48;7.68;;;;;;;6.85;100.00;101875.13;15294705;19;20022;-61
2021/12/12 16:18:03;;;;;;;13.93;7.75;;;;;;;6.92;100.00;101878.03;15294045;19;20020;-61
2021/12/12 16:23:09;;;;;;;18.05;8.63;;;;;;;6.89;100.00;101892.72;15294723;19;20290;-61
2021/12/12 16:28:18;;;;;;;14.95;7.85;;;;;;;6.92;100.00;101898.88;15293078;19;20014;-61
2021/12/12 16:33:29;;;;;;;17.15;9.05;;;;;;;6.95;100.00;101899.03;15292765;19;20530;-61
2021/12/12 16:38:32;;;;;;;18.25;9.30;;;;;;;6.98;100.00;101904.38;15295180;19;20082;-60
2021/12/12 16:43:45;;;;;;;16.85;8.88;;;;;;;6.94;100.00;101903.34;15295366;19;20098;-61
2021/12/12 16:49:07;;;;;;;18.00;10.18;;;;;;;6.95;100.00;101904.22;15294682;19;20085;-61
2021/12/12 16:54:13;;;;;;;19.77;9.32;;;;;;;6.98;100.00;101909.59;15293447;19;20014;-60
2021/12/12 16:59:34;;;;;;;17.13;9.05;;;;;;;6.96;100.00;101906.91;15289433;19;20399;-61
2021/12/12 17:04:44;;;;;;;16.90;9.20;;;;;;;7.04;100.00;101916.00;15290852;19;20086;-60
2021/12/12 17:09:49;;;;;;;20.65;9.93;;;;;;;7.06;100.00;101913.47;15291343;19;20031;-60
2021/12/12 17:15:01;;;;;;;17.70;9.07;;;;;;;7.06;100.00;101914.38;15292650;19;20031;-59
2021/12/12 17:20:24;;;;;;;19.80;10.18;;;;;;;7.06;100.00;101921.28;15287884;19;20014;-60
2021/12/12 17:25:28;;;;;;;21.95;10.18;;;;;;;7.06;100.00;101929.09;15290254;19;20017;-60
2021/12/12 17:30:32;;;;;;;21.02;10.05;;;;;;;7.10;100.00;101931.06;15290789;19;20025;-61
2021/12/12 17:35:41;;;;;;;21.38;10.63;;;;;;;7.10;100.00;101923.25;15287292;19;20027;-59
2021/12/12 17:40:53;;;;;;;18.95;10.05;;;;;;;7.17;100.00;101935.72;15289162;19;20017;-61
2021/12/12 17:46:02;;;;;;;19.38;10.35;;;;;;;7.19;100.00;101930.59;15291047;19;20011;-61
2021/12/12 17:51:21;;;;;;;19.98;10.57;;;;;;;7.24;100.00;101943.03;15291278;19;20350;-61
2021/12/12 17:56:35;;;;;;;21.23;11.07;;;;;;;7.26;100.00;101938.78;15289835;19;20018;-61
2021/12/12 18:01:44;;;;;;;22.55;10.35;;;;;;;7.29;100.00;101947.59;15289147;19;20018;-60
2021/12/12 18:06:55;;;;;;;20.33;9.68;;;;;;;7.29;100.00;101947.59;15288366;19;20018;-61
2021/12/12 18:12:05;;;;;;;23.05;10.82;;;;;;;7.25;100.00;101944.84;15300881;19;20043;-60
2021/12/12 18:17:37;;;;;;;20.98;10.77;;;;;;;7.33;100.00;101952.13;15303344;19;20022;-61
2021/12/12 18:22:43;;;;;;;22.83;11.05;;;;;;;7.35;100.00;101950.47;15302698;19;20030;-60
2021/12/12 18:27:56;;;;;;;23.05;11.13;;;;;;;7.37;100.00;101946.22;15301995;19;20018;-60
2021/12/12 18:33:18;;;;;;;24.08;11.80;;;;;;;7.41;100.00;101953.38;15301471;19;20022;-60
2021/12/12 18:38:29;;;;;;;20.98;10.60;;;;;;;7.43;100.00;101968.28;15301549;19;20033;-61
2021/12/12 18:43:38;;;;;;;27.65;12.23;;;;;;;7.42;100.00;101971.69;15300940;19;20021;-60
2021/12/12 18:48:42;;;;;;;21.27;10.05;;;;;;;7.50;100.00;101979.88;15304195;19;20027;-60
2021/12/12 18:53:50;;;;;;;24.55;11.00;;;;;;;-147.53;100.00;57128.34;15299267;19;20027;-60
2021/12/12 18:58:52;;;;;;;21.27;10.25;;;;;;;-147.53;100.00;57128.34;15298771;19;20074;-61
2021/12/12 19:04:01;;;;;;;24.23;10.70;;;;;;;-147.53;100.00;57128.34;15297156;19;20364;-60
2021/12/12 19:09:06;;;;;;;21.45;10.77;;;;;;;-147.53;100.00;57128.34;15298248;19;20081;-61
2021/12/12 19:14:15;;;;;;;23.38;10.50;;;;;;;-147.53;100.00;57128.34;15297317;19;20015;-60
2021/12/12 19:19:26;;;;;;;23.27;10.18;;;;;;;-147.53;100.00;57128.34;15295752;19;20014;-61
2021/12/12 19:24:32;;;;;;;23.25;11.27;;;;;;;-147.53;100.00;57128.34;15297919;19;20432;-60
2021/12/12 19:29:40;;;;;;;23.05;10.05;;;;;;;-147.53;100.00;57128.34;15299251;19;20030;-60
2021/12/12 19:34:46;;;;;;;21.98;10.27;;;;;;;-147.53;100.00;57128.34;15290353;19;20017;-60
2021/12/12 19:39:47;;;;;;;21.33;10.15;;;;;;;-147.53;100.00;57128.34;15290562;19;20422;-60
2021/12/12 19:44:49;;;;;;;20.52;9.90;;;;;;;-147.53;100.00;57128.34;15293907;19;20037;-60
2021/12/12 19:49:55;;;;;;;21.40;9.23;;;;;;;-147.53;100.00;57128.34;15245322;19;20018;-59
2021/12/12 19:55:09;;;;;;;22.77;10.23;;;;;;;-147.53;100.00;57128.34;14588466;19;20613;-61
2021/12/12 20:00:15;;;;;;;19.35;10.02;;;;;;;-147.53;100.00;57128.34;14708166;19;20022;-61
2021/12/12 20:05:18;;;;;;;19.80;9.30;;;;;;;-147.53;100.00;57128.34;15015129;19;20363;-62
2021/12/12 20:10:26;;;;;;;20.73;9.60;;;;;;;-147.53;100.00;57128.34;14493918;19;20101;-62
2021/12/12 20:15:37;;;;;;;20.45;9.23;;;;;;;-147.53;100.00;57128.34;14514804;19;20055;-61
2021/12/12 20:20:46;;;;;;;21.13;9.38;;;;;;;-147.53;100.00;57128.34;14482872;19;20576;-61
2021/12/12 20:26:02;;;;;;;20.27;9.45;;;;;;;-147.53;100.00;57128.34;14493163;19;20371;-61
2021/12/12 20:31:10;;;;;;;20.67;8.82;;;;;;;-147.53;100.00;57128.34;14486203;19;20690;-61
2021/12/12 20:36:27;;;;;;;21.98;9.40;;;;;;;-147.53;100.00;57128.34;14471101;19;20588;-61
2021/12/12 20:41:40;;;;;;;19.83;9.40;;;;;;;-147.53;100.00;57128.34;15171059;19;20379;-61
2021/12/12 20:46:54;;;;;;;22.58;9.30;;;;;;;-147.53;100.00;57128.34;15293058;19;20023;-60
2021/12/12 20:52:16;;;;;;;23.75;10.00;;;;;;;-147.53;100.00;57128.34;15292708;19;20014;-61
2021/12/12 20:57:29;;;;;;;23.65;9.57;;;;;;;-147.53;100.00;57128.34;15293992;19;20637;-61
2021/12/12 21:02:38;;;;;;;24.73;10.52;;;;;;;-147.53;100.00;57128.34;15294508;19;20014;-61
2021/12/12 21:07:43;;;;;;;30.97;11.80;;;;;;;-147.53;100.00;57128.34;15291405;19;20035;-61
2021/12/12 21:12:52;;;;;;;27.10;11.10;;;;;;;-147.53;100.00;57128.34;15292563;19;20014;-61
2021/12/12 21:17:55;;;;;;;24.48;11.18;;;;;;;-147.53;100.00;57128.34;15291984;19;20367;-61
2021/12/12 21:23:20;;;;;;;32.22;12.73;;;;;;;-147.53;100.00;57128.34;15291019;19;20082;-61
2021/12/12 21:28:33;;;;;;;30.77;12.43;;;;;;;-147.53;100.00;57128.34;15290869;19;20019;-61
2021/12/12 21:33:49;;;;;;;28.73;12.30;;;;;;;-147.53;100.00;57128.34;15291135;19;20479;-61
2021/12/12 21:39:17;;;;;;;30.50;12.80;;;;;;;-147.53;100.00;57128.34;15288552;19;20463;-64
2021/12/12 21:44:27;;;;;;;25.02;11.05;;;;;;;-147.53;100.00;57128.34;15284970;19;20504;-61
2021/12/12 21:50:06;;;;;;;31.15;11.98;;;;;;;-147.53;100.00;57128.34;15290154;19;20038;-61
2021/12/12 21:55:26;;;;;;;26.67;10.80;;;;;;;-147.53;100.00;57128.34;15284251;19;20089;-61
2021/12/12 22:00:29;;;;;;;29.65;10.75;;;;;;;-147.53;100.00;57128.34;15287742;19;20070;-61
2021/12/12 22:05:36;;;;;;;29.20;11.52;;;;;;;-147.53;100.00;57128.34;15288622;19;20011;-61
2021/12/12 22:10:41;;;;;;;23.50;10.07;;;;;;;-147.53;100.00;57128.34;15287892;19;20022;-61
2021/12/12 22:15:52;;;;;;;23.67;9.38;;;;;;;-147.53;100.00;57128.34;15287067;19;20074;-61
2021/12/12 22:20:58;;;;;;;22.05;9.38;;;;;;;-147.53;100.00;57128.34;15283553;19;20021;-61
2021/12/12 22:26:01;;;;;;;26.00;10.07;;;;;;;-147.53;100.00;57128.34;15285185;19;20082;-61
2021/12/12 22:31:06;;;;;;;24.88;10.07;;;;;;;-147.53;100.00;57128.34;15287610;19;20048;-61
2021/12/12 22:36:11;;;;;;;23.30;8.98;;;;;;;-147.53;100.00;57128.34;15285451;19;20023;-61
2021/12/12 22:41:21;;;;;;;24.40;9.43;;;;;;;-147.53;100.00;57128.34;15284587;19;20027;-61
2021/12/12 22:46:24;;;;;;;21.42;9.15;;;;;;;-147.53;100.00;57128.34;15287202;19;20014;-61
2021/12/12 22:51:31;;;;;;;22.23;9.07;;;;;;;-147.53;100.00;57128.34;15285708;19;20014;-61
2021/12/12 22:56:49;;;;;;;21.45;8.57;;;;;;;-147.53;100.00;57128.34;15295558;19;20078;-61
2021/12/12 23:02:03;;;;;;;24.92;8.15;;;;;;;-147.53;100.00;57128.34;15299321;19;20078;-60
2021/12/12 23:07:26;;;;;;;21.05;8.43;;;;;;;-147.53;100.00;57128.34;15303481;19;20459;-62
2021/12/12 23:12:34;;;;;;;20.65;8.57;;;;;;;-147.53;100.00;57128.34;15301913;19;20661;-61
2021/12/12 23:17:41;;;;;;;21.30;8.48;;;;;;;-147.53;100.00;57128.34;15299051;19;20018;-61
2021/12/12 23:22:44;;;;;;;24.52;8.55;;;;;;;-147.53;100.00;57128.34;15297231;19;20094;-61
2021/12/12 23:33:01;;;;;;;21.73;8.02;;;;;;;-147.53;100.00;57128.34;15298330;19;20482;-61
2021/12/12 23:38:10;;;;;;;24.48;9.10;;;;;;;-147.53;100.00;57128.34;15298252;19;20424;-61
2021/12/12 23:43:22;;;;;;;28.60;9.27;;;;;;;-147.53;100.00;57128.34;15297084;19;20037;-61